createdAt,value
2019-04-06T00:00:24.410Z,10.40
2019-04-06T00:04:27.413Z,10.50
2019-04-06T00:08:30.492Z,10.50
2019-04-06T00:12:33.597Z,10.50
2019-04-06T00:16:36.625Z,10.50
2019-04-06T00:20:39.627Z,10.50
2019-04-06T00:24:42.641Z,10.50
2019-04-06T00:28:45.786Z,10.60
2019-04-06T00:32:50.787Z,10.50
2019-04-06T00:36:53.810Z,10.50
2019-04-06T00:40:56.807Z,10.50
2019-04-06T00:44:59.802Z,10.40
2019-04-06T00:49:02.786Z,10.30
2019-04-06T00:53:05.839Z,10.30
2019-04-06T00:57:10.816Z,10.40
2019-04-06T01:01:13.911Z,10.40
2019-04-06T01:05:17.028Z,10.40
2019-04-06T01:09:21.895Z,10.30
2019-04-06T01:13:25.011Z,10.50
2019-04-06T01:17:28.882Z,10.50
2019-04-06T01:21:32.065Z,10.40
2019-04-06T01:25:35.060Z,10.30
2019-04-06T01:29:38.060Z,10.40
2019-04-06T01:33:41.106Z,10.30
2019-04-06T01:37:44.288Z,10.10
2019-04-06T01:41:47.295Z,10.20
2019-04-06T01:45:50.416Z,10.30
2019-04-06T01:49:53.504Z,10.30
2019-04-06T01:53:56.553Z,10.30
2019-04-06T01:58:00.445Z,10.30
2019-04-06T02:02:14.717Z,10.10
2019-04-06T02:06:17.754Z,10.10
2019-04-06T02:10:20.928Z,10.00
2019-04-06T02:14:25.159Z,10.00
2019-04-06T02:18:28.276Z,9.80
2019-04-06T02:22:31.367Z,9.70
2019-04-06T02:26:34.372Z,9.70
2019-04-06T02:30:39.359Z,9.60
2019-04-06T02:34:47.211Z,9.70
2019-04-06T02:38:57.878Z,9.70
2019-04-06T02:43:05.555Z,9.60
2019-04-06T02:47:08.587Z,9.60
2019-04-06T02:51:11.591Z,9.60
2019-04-06T02:55:15.612Z,9.60
2019-04-06T02:59:19.181Z,9.50
2019-04-06T03:03:22.303Z,9.40
2019-04-06T03:07:25.443Z,9.40
2019-04-06T03:11:28.513Z,9.40
2019-04-06T03:15:31.521Z,9.30
2019-04-06T03:19:34.705Z,9.30
2019-04-06T03:23:49.837Z,9.10
2019-04-06T03:27:42.638Z,9.10
2019-04-06T03:31:45.843Z,9.00
2019-04-06T03:35:50.375Z,9.00
2019-04-06T03:39:53.765Z,8.90
2019-04-06T03:43:56.766Z,8.90
2019-04-06T03:47:59.772Z,8.80
2019-04-06T03:52:02.822Z,8.80
2019-04-06T03:56:05.900Z,8.70
2019-04-06T04:00:10.869Z,8.60
2019-04-06T04:04:13.876Z,8.50
2019-04-06T04:08:16.888Z,8.50
2019-04-06T04:12:19.897Z,8.50
2019-04-06T04:16:23.042Z,8.30
2019-04-06T04:20:26.461Z,8.20
2019-04-06T04:24:29.642Z,8.20
2019-04-06T04:28:32.916Z,8.20
2019-04-06T04:32:36.102Z,8.10
2019-04-06T04:36:39.165Z,8.00
2019-04-06T04:40:42.215Z,7.90
2019-04-06T04:44:45.935Z,7.90
2019-04-06T04:48:49.876Z,7.80
2019-04-06T04:52:53.103Z,7.70
2019-04-06T04:56:56.306Z,7.70
2019-04-06T05:01:00.020Z,7.60
2019-04-06T05:05:04.968Z,7.40
2019-04-06T05:09:08.625Z,7.40
2019-04-06T05:13:11.645Z,7.40
2019-04-06T05:17:15.568Z,7.40
2019-04-06T05:21:18.568Z,7.50
2019-04-06T05:25:21.594Z,7.60
2019-04-06T05:29:24.698Z,7.60
2019-04-06T05:33:27.792Z,7.70
2019-04-06T05:37:30.808Z,7.80
2019-04-06T05:41:33.981Z,7.80
2019-04-06T05:45:37.157Z,7.90
2019-04-06T05:49:41.897Z,8.10
2019-04-06T05:53:44.971Z,8.40
2019-04-06T05:57:47.974Z,8.70
2019-04-06T06:01:52.277Z,8.50
2019-04-06T06:05:55.332Z,8.50
2019-04-06T06:09:58.433Z,8.60
2019-04-06T06:14:02.844Z,8.80
2019-04-06T06:18:05.839Z,9.10
2019-04-06T06:22:08.851Z,9.40
2019-04-06T06:26:11.855Z,9.50
2019-04-06T06:30:15.745Z,9.60
2019-04-06T06:34:19.028Z,9.90
2019-04-06T06:38:22.037Z,10.30
2019-04-06T06:42:25.041Z,10.40
2019-04-06T06:46:28.036Z,10.40
2019-04-06T06:50:31.042Z,10.30
2019-04-06T06:54:35.035Z,10.40
2019-04-06T06:58:38.410Z,10.50
2019-04-06T07:02:41.887Z,10.60
2019-04-06T07:06:45.008Z,10.90
2019-04-06T07:10:48.159Z,11.00
2019-04-06T07:14:51.248Z,11.00
2019-04-06T07:18:54.305Z,11.30
2019-04-06T07:22:57.720Z,11.50
2019-04-06T07:27:01.152Z,11.50
2019-04-06T07:31:04.215Z,11.70
2019-04-06T07:35:07.568Z,11.80
2019-04-06T07:39:10.585Z,12.50
2019-04-06T07:43:13.729Z,13.80
2019-04-06T07:47:16.806Z,14.80
2019-04-06T07:51:19.852Z,15.50
2019-04-06T07:55:23.115Z,15.50
2019-04-06T07:59:26.167Z,15.20
2019-04-06T08:03:30.520Z,15.80
2019-04-06T08:07:33.566Z,15.90
2019-04-06T08:11:36.668Z,16.50
2019-04-06T08:15:39.914Z,16.80
2019-04-06T08:19:43.141Z,17.80
2019-04-06T08:23:46.668Z,17.50
2019-04-06T08:27:49.788Z,18.10
2019-04-06T08:31:52.836Z,18.80
2019-04-06T08:35:56.064Z,18.50
2019-04-06T08:39:59.247Z,18.30
2019-04-06T08:44:03.714Z,18.30
2019-04-06T08:48:06.867Z,18.70
2019-04-06T08:52:11.669Z,19.90
2019-04-06T08:56:14.893Z,20.90
2019-04-06T09:00:18.204Z,20.90
2019-04-06T09:04:21.708Z,20.90
2019-04-06T09:08:24.777Z,19.90
2019-04-06T09:12:27.918Z,20.20
2019-04-06T09:16:31.040Z,20.70
2019-04-06T09:20:34.062Z,20.20
2019-04-06T09:24:37.370Z,20.10
2019-04-06T09:28:40.404Z,20.40
2019-04-06T09:32:44.242Z,20.70
2019-04-06T09:36:47.440Z,19.80
2019-04-06T09:40:50.867Z,20.10
2019-04-06T09:44:55.922Z,19.60
2019-04-06T09:49:03.805Z,19.90
2019-04-06T09:53:26.704Z,20.10
2019-04-06T09:57:37.532Z,19.40
2019-04-06T10:01:59.047Z,19.70
2019-04-06T10:06:06.291Z,19.60
2019-04-06T10:10:21.715Z,20.00
2019-04-06T10:14:29.772Z,19.20
2019-04-06T10:18:34.706Z,18.70
2019-04-06T10:22:39.619Z,18.30
2019-04-06T10:26:47.303Z,18.40
2019-04-06T10:31:01.533Z,18.30
2019-04-06T10:35:06.654Z,18.80
2019-04-06T10:39:14.817Z,18.70
2019-04-06T10:43:19.955Z,18.50
2019-04-06T10:47:27.864Z,18.20
2019-04-06T10:51:41.872Z,17.50
2019-04-06T10:55:55.413Z,17.90
2019-04-06T11:00:03.463Z,18.20
2019-04-06T11:04:14.396Z,18.20
2019-04-06T11:08:26.024Z,18.70
2019-04-06T11:12:31.199Z,18.10
2019-04-06T11:16:42.307Z,17.60
2019-04-06T11:20:47.460Z,17.80
2019-04-06T11:24:58.180Z,17.50
2019-04-06T11:29:08.928Z,17.80
2019-04-06T11:33:13.994Z,18.20
2019-04-06T11:37:18.916Z,18.90
2019-04-06T11:41:29.369Z,19.40
2019-04-06T11:45:34.277Z,19.60
2019-04-06T11:49:48.158Z,20.00
2019-04-06T11:53:55.848Z,19.80
2019-04-06T11:58:03.599Z,20.50
2019-04-06T12:02:08.878Z,21.00
2019-04-06T12:06:13.917Z,20.70
2019-04-06T12:10:20.174Z,21.60
2019-04-06T12:14:25.632Z,21.80
2019-04-06T12:18:36.344Z,21.50
2019-04-06T12:22:41.379Z,20.70
2019-04-06T12:26:52.155Z,20.20
2019-04-06T12:31:05.973Z,19.60
2019-04-06T12:35:11.031Z,19.70
2019-04-06T12:39:28.093Z,19.40
2019-04-06T12:43:49.725Z,19.90
2019-04-06T12:47:57.358Z,20.20
2019-04-06T12:52:08.269Z,20.70
2019-04-06T12:56:16.361Z,20.50
2019-04-06T13:00:27.301Z,19.90
2019-04-06T13:04:32.253Z,20.30
2019-04-06T13:08:43.128Z,20.30
2019-04-06T13:13:05.200Z,20.40
2019-04-06T13:17:13.063Z,20.30
2019-04-06T13:21:34.666Z,20.10
2019-04-06T13:25:56.219Z,20.30
2019-04-06T13:30:04.270Z,20.00
2019-04-06T13:34:14.893Z,19.20
2019-04-06T13:38:23.233Z,19.10
2019-04-06T13:42:44.999Z,19.00
2019-04-06T13:46:49.921Z,19.80
2019-04-06T13:50:54.864Z,19.90
2019-04-06T13:55:02.276Z,19.90
2019-04-06T13:59:09.723Z,20.20
2019-04-06T14:03:14.857Z,20.00
2019-04-06T14:07:36.929Z,20.80
2019-04-06T14:11:54.005Z,21.00
2019-04-06T14:16:09.334Z,20.30
2019-04-06T14:20:14.813Z,20.50
2019-04-06T14:24:19.863Z,20.50
2019-04-06T14:28:41.535Z,19.90
2019-04-06T14:32:58.725Z,20.10
2019-04-06T14:37:06.344Z,20.10
2019-04-06T14:41:26.703Z,20.10
2019-04-06T14:45:37.156Z,20.50
2019-04-06T14:49:51.010Z,20.60
2019-04-06T14:53:56.048Z,20.80
2019-04-06T14:58:10.215Z,20.30
2019-04-06T15:02:31.596Z,20.10
2019-04-06T15:06:39.380Z,20.00
2019-04-06T15:11:00.789Z,19.80
2019-04-06T15:15:16.338Z,19.80
2019-04-06T15:19:39.094Z,19.90
2019-04-06T15:23:44.301Z,20.10
2019-04-06T15:27:49.673Z,19.90
2019-04-06T15:32:09.385Z,20.40
2019-04-06T15:36:17.336Z,20.50
2019-04-06T15:40:40.938Z,21.00
2019-04-06T15:44:47.831Z,20.90
2019-04-06T15:48:58.946Z,20.80
2019-04-06T15:53:22.081Z,20.90
2019-04-06T15:57:36.038Z,20.40
2019-04-06T16:01:40.963Z,20.10
2019-04-06T16:05:45.886Z,19.50
2019-04-06T16:09:56.660Z,19.70
2019-04-06T16:14:01.616Z,19.60
2019-04-06T16:18:09.588Z,19.60
2019-04-06T16:22:15.950Z,19.70
2019-04-06T16:26:21.077Z,19.70
2019-04-06T16:30:26.230Z,19.60
2019-04-06T16:34:34.258Z,19.50
2019-04-06T16:38:56.036Z,19.40
2019-04-06T16:43:19.266Z,19.40
2019-04-06T16:47:30.401Z,19.40
2019-04-06T16:51:35.481Z,19.50
2019-04-06T16:55:40.695Z,19.60
2019-04-06T16:59:45.691Z,19.40
2019-04-06T17:03:50.584Z,19.20
2019-04-06T17:07:56.021Z,19.20
2019-04-06T17:12:00.972Z,19.10
2019-04-06T17:16:08.648Z,18.90
2019-04-06T17:20:30.220Z,18.80
2019-04-06T17:24:42.107Z,18.70
2019-04-06T17:29:03.518Z,18.50
2019-04-06T17:33:11.558Z,18.30
2019-04-06T17:37:22.557Z,18.10
2019-04-06T17:41:42.247Z,17.90
2019-04-06T17:45:47.200Z,17.80
2019-04-06T17:50:06.867Z,17.70
2019-04-06T17:54:15.056Z,17.50
2019-04-06T17:58:22.675Z,17.40
2019-04-06T18:02:48.699Z,17.30
2019-04-06T18:06:53.545Z,17.20
2019-04-06T18:10:58.451Z,17.00
2019-04-06T18:15:03.575Z,16.90
2019-04-06T18:19:06.816Z,16.90
2019-04-06T18:23:09.973Z,16.70
2019-04-06T18:27:14.104Z,16.60
2019-04-06T18:31:19.141Z,16.50
2019-04-06T18:35:22.322Z,16.50
2019-04-06T18:39:26.691Z,16.40
2019-04-06T18:43:29.787Z,16.40
2019-04-06T18:47:32.796Z,16.30
2019-04-06T18:51:36.603Z,16.20
2019-04-06T18:55:40.098Z,16.20
2019-04-06T18:59:43.255Z,16.00
2019-04-06T19:03:47.678Z,15.80
2019-04-06T19:07:50.696Z,15.80
2019-04-06T19:11:56.583Z,15.80
2019-04-06T19:15:58.698Z,15.80
2019-04-06T19:20:04.070Z,15.80
2019-04-06T19:24:07.120Z,15.80
2019-04-06T19:28:11.058Z,15.80
2019-04-06T19:32:14.142Z,15.80
2019-04-06T19:36:17.317Z,15.80
2019-04-06T19:40:20.317Z,15.70
2019-04-06T19:44:26.013Z,15.70
2019-04-06T19:48:29.158Z,15.60
2019-04-06T19:52:32.220Z,15.60
2019-04-06T19:56:35.319Z,15.60
2019-04-06T20:00:38.414Z,15.60
2019-04-06T20:04:41.855Z,15.70
2019-04-06T20:08:45.019Z,15.60
2019-04-06T20:12:48.088Z,15.50
2019-04-06T20:16:51.343Z,15.50
2019-04-06T20:20:54.451Z,15.50
2019-04-06T20:24:57.645Z,15.50
2019-04-06T20:29:02.494Z,15.50
2019-04-06T20:33:05.919Z,15.50
2019-04-06T20:37:09.419Z,15.60
2019-04-06T20:41:12.556Z,15.60
2019-04-06T20:45:16.471Z,15.60
2019-04-06T20:49:19.825Z,15.60
2019-04-06T20:53:22.904Z,15.50
2019-04-06T20:57:26.072Z,15.40
2019-04-06T21:05:30.090Z,15.30
2019-04-06T21:09:35.281Z,15.10
2019-04-06T21:13:38.264Z,15.10
2019-04-06T21:17:41.372Z,14.90
2019-04-06T21:21:44.471Z,14.80
2019-04-06T21:25:47.557Z,14.80
2019-04-06T21:29:52.876Z,14.80
2019-04-06T21:33:56.084Z,14.80
2019-04-06T21:37:59.637Z,14.80
2019-04-06T21:42:03.302Z,14.80
2019-04-06T21:46:06.717Z,14.80
2019-04-06T21:50:10.174Z,14.70
2019-04-06T21:54:13.732Z,14.60
2019-04-06T21:58:20.148Z,14.60
2019-04-06T22:02:23.274Z,14.50
2019-04-06T22:06:26.461Z,14.50
2019-04-06T22:10:29.828Z,14.40
2019-04-06T22:14:33.324Z,14.50
2019-04-06T22:18:36.404Z,14.40
2019-04-06T22:22:39.513Z,14.30
2019-04-06T22:26:42.807Z,14.30
2019-04-06T22:30:47.751Z,14.20
2019-04-06T22:34:50.998Z,14.10
2019-04-06T22:38:54.117Z,14.10
2019-04-06T22:42:57.311Z,14.10
2019-04-06T22:47:00.414Z,14.10
2019-04-06T22:51:03.512Z,14.10
2019-04-06T22:55:07.524Z,14.20
2019-04-06T22:59:11.187Z,14.20
2019-04-06T23:03:34.407Z,14.20
2019-04-06T23:07:37.648Z,14.20
2019-04-06T23:11:40.944Z,14.10
2019-04-06T23:15:44.112Z,14.00
2019-04-06T23:19:47.148Z,14.00
2019-04-06T23:23:50.475Z,14.00
2019-04-06T23:27:53.565Z,13.80
2019-04-06T23:31:57.632Z,13.80
2019-04-06T23:36:01.121Z,13.70
2019-04-06T23:40:05.385Z,13.70
2019-04-06T23:44:08.889Z,13.60
2019-04-06T23:48:12.074Z,13.60
2019-04-06T23:52:15.224Z,13.50
2019-04-06T23:56:18.784Z,13.50
